KDTA

Delta Municipal Airport

Delta, Utah, USA
METAR KDTA 191535Z AUTO 09003KT 10SM CLR M06/M08 A3033 RMK AO1
Observed Flight Rules
Nov-19 @ 15:35 UTC (20 minutes ago) Visual Flight Rules
Wind Visibility Clouds
90° at 3 knots 10 miles
  • Clear skies
Temperatures Readings
Current -6°C / 21°F
Dewpoint -8°C / 18°F
Humidity 86%
Altimeter 30.33" Hg
Pressure 1027 hPa
Elevation 1402
METAR KDTA 191535Z AUTO 09003KT 10SM CLR M06/M08 A3033 RMK AO1
Observed Flight Rules
Nov-19 @ 15:35 UTC
(20 minutes ago)
VFR
Wind Visibility
90° at 3 knots 10 miles
Clouds
  • Clear skies
Temperature Dewpoint
-6°C / 21°F -8°C / 18°F
Humidity Altimeter Pressure
86% 30.33" Hg 1027 hPa